sensor_id;sensor_type;location;lat;lon;timestamp;P1;durP1;ratioP1;P2;durP2;ratioP2
61093;SDS011;46976;52.942;6.810;2022-08-03T00:01:58;7.05;;;2.63;;
61093;SDS011;46976;52.942;6.810;2022-08-03T00:04:25;9.27;;;2.75;;
61093;SDS011;46976;52.942;6.810;2022-08-03T00:06:52;8.57;;;2.60;;
61093;SDS011;46976;52.942;6.810;2022-08-03T00:09:18;8.00;;;2.50;;
61093;SDS011;46976;52.942;6.810;2022-08-03T00:11:44;10.43;;;2.47;;
61093;SDS011;46976;52.942;6.810;2022-08-03T00:14:10;7.45;;;2.50;;
61093;SDS011;46976;52.942;6.810;2022-08-03T00:16:36;7.93;;;2.70;;
61093;SDS011;46976;52.942;6.810;2022-08-03T00:19:02;7.85;;;2.50;;
61093;SDS011;46976;52.942;6.810;2022-08-03T00:21:29;8.68;;;2.30;;
61093;SDS011;46976;52.942;6.810;2022-08-03T00:23:55;7.47;;;2.30;;
61093;SDS011;46976;52.942;6.810;2022-08-03T00:26:21;9.27;;;2.35;;
61093;SDS011;46976;52.942;6.810;2022-08-03T00:28:47;10.35;;;2.40;;
61093;SDS011;46976;52.942;6.810;2022-08-03T00:31:14;7.32;;;2.60;;
61093;SDS011;46976;52.942;6.810;2022-08-03T00:33:40;7.68;;;2.40;;
61093;SDS011;46976;52.942;6.810;2022-08-03T00:36:06;9.00;;;2.40;;
61093;SDS011;46976;52.942;6.810;2022-08-03T00:38:32;9.63;;;2.80;;
61093;SDS011;46976;52.942;6.810;2022-08-03T00:40:58;12.35;;;2.55;;
61093;SDS011;46976;52.942;6.810;2022-08-03T00:43:24;9.73;;;2.60;;
61093;SDS011;46976;52.942;6.810;2022-08-03T00:45:51;8.35;;;2.70;;
61093;SDS011;46976;52.942;6.810;2022-08-03T00:48:19;8.25;;;2.53;;
61093;SDS011;46976;52.942;6.810;2022-08-03T00:50:45;8.35;;;2.70;;
61093;SDS011;46976;52.942;6.810;2022-08-03T00:53:12;10.32;;;3.00;;
61093;SDS011;46976;52.942;6.810;2022-08-03T00:55:39;9.73;;;2.50;;
61093;SDS011;46976;52.942;6.810;2022-08-03T00:58:06;8.40;;;2.75;;
61093;SDS011;46976;52.942;6.810;2022-08-03T01:00:33;13.27;;;2.83;;
61093;SDS011;46976;52.942;6.810;2022-08-03T01:03:09;10.70;;;2.60;;
61093;SDS011;46976;52.942;6.810;2022-08-03T01:05:39;9.45;;;2.38;;
61093;SDS011;46976;52.942;6.810;2022-08-03T01:10:56;8.07;;;2.38;;
61093;SDS011;46976;52.942;6.810;2022-08-03T01:13:47;8.95;;;2.40;;
61093;SDS011;46976;52.942;6.810;2022-08-03T01:18:57;10.77;;;2.75;;
61093;SDS011;46976;52.942;6.810;2022-08-03T01:21:31;8.73;;;3.00;;
61093;SDS011;46976;52.942;6.810;2022-08-03T01:32:05;7.65;;;2.92;;
61093;SDS011;46976;52.942;6.810;2022-08-03T01:34:34;9.23;;;3.00;;
61093;SDS011;46976;52.942;6.810;2022-08-03T01:37:02;9.48;;;3.40;;
61093;SDS011;46976;52.942;6.810;2022-08-03T01:41:57;9.13;;;3.35;;
61093;SDS011;46976;52.942;6.810;2022-08-03T01:44:25;8.95;;;3.63;;
61093;SDS011;46976;52.942;6.810;2022-08-03T01:46:53;9.43;;;3.95;;
61093;SDS011;46976;52.942;6.810;2022-08-03T01:49:20;9.27;;;4.20;;
61093;SDS011;46976;52.942;6.810;2022-08-03T01:51:47;9.35;;;4.10;;
61093;SDS011;46976;52.942;6.810;2022-08-03T01:54:13;10.10;;;4.32;;
61093;SDS011;46976;52.942;6.810;2022-08-03T01:56:39;11.50;;;4.88;;
61093;SDS011;46976;52.942;6.810;2022-08-03T01:59:07;11.68;;;4.80;;
61093;SDS011;46976;52.942;6.810;2022-08-03T02:01:35;12.00;;;5.30;;
61093;SDS011;46976;52.942;6.810;2022-08-03T02:04:02;9.32;;;4.45;;
61093;SDS011;46976;52.942;6.810;2022-08-03T02:06:31;11.02;;;4.82;;
61093;SDS011;46976;52.942;6.810;2022-08-03T02:08:58;11.05;;;4.75;;
61093;SDS011;46976;52.942;6.810;2022-08-03T02:11:25;12.10;;;4.90;;
61093;SDS011;46976;52.942;6.810;2022-08-03T02:13:52;13.43;;;5.65;;
61093;SDS011;46976;52.942;6.810;2022-08-03T02:16:19;10.00;;;4.85;;
61093;SDS011;46976;52.942;6.810;2022-08-03T02:18:46;10.45;;;5.20;;
61093;SDS011;46976;52.942;6.810;2022-08-03T02:21:13;10.88;;;5.20;;
61093;SDS011;46976;52.942;6.810;2022-08-03T02:23:40;11.73;;;4.82;;
61093;SDS011;46976;52.942;6.810;2022-08-03T02:26:07;12.32;;;5.00;;
61093;SDS011;46976;52.942;6.810;2022-08-03T02:28:36;11.03;;;5.20;;
61093;SDS011;46976;52.942;6.810;2022-08-03T02:31:04;10.27;;;4.88;;
61093;SDS011;46976;52.942;6.810;2022-08-03T02:33:31;10.27;;;4.65;;
61093;SDS011;46976;52.942;6.810;2022-08-03T02:35:57;12.50;;;4.85;;
61093;SDS011;46976;52.942;6.810;2022-08-03T02:38:26;11.38;;;4.97;;
61093;SDS011;46976;52.942;6.810;2022-08-03T02:40:52;11.68;;;4.93;;
61093;SDS011;46976;52.942;6.810;2022-08-03T02:43:20;12.48;;;4.78;;
61093;SDS011;46976;52.942;6.810;2022-08-03T02:45:47;14.45;;;5.22;;
61093;SDS011;46976;52.942;6.810;2022-08-03T02:48:19;13.07;;;4.95;;
61093;SDS011;46976;52.942;6.810;2022-08-03T02:50:47;11.45;;;5.10;;
61093;SDS011;46976;52.942;6.810;2022-08-03T02:53:14;10.35;;;4.68;;
61093;SDS011;46976;52.942;6.810;2022-08-03T02:55:42;10.63;;;4.80;;
61093;SDS011;46976;52.942;6.810;2022-08-03T02:58:09;10.43;;;4.88;;
61093;SDS011;46976;52.942;6.810;2022-08-03T03:00:36;11.52;;;4.57;;
61093;SDS011;46976;52.942;6.810;2022-08-03T03:03:03;11.38;;;4.88;;
61093;SDS011;46976;52.942;6.810;2022-08-03T03:05:30;11.30;;;5.13;;
61093;SDS011;46976;52.942;6.810;2022-08-03T03:07:57;9.80;;;4.55;;
61093;SDS011;46976;52.942;6.810;2022-08-03T03:10:23;13.27;;;4.97;;
61093;SDS011;46976;52.942;6.810;2022-08-03T03:12:51;11.73;;;5.03;;
61093;SDS011;46976;52.942;6.810;2022-08-03T03:15:18;15.57;;;5.10;;
61093;SDS011;46976;52.942;6.810;2022-08-03T03:17:44;10.68;;;4.97;;
61093;SDS011;46976;52.942;6.810;2022-08-03T03:20:10;11.23;;;4.75;;
61093;SDS011;46976;52.942;6.810;2022-08-03T03:22:37;10.75;;;5.07;;
61093;SDS011;46976;52.942;6.810;2022-08-03T03:25:04;10.65;;;5.05;;
61093;SDS011;46976;52.942;6.810;2022-08-03T03:27:30;12.10;;;5.38;;
61093;SDS011;46976;52.942;6.810;2022-08-03T03:29:58;10.52;;;4.88;;
61093;SDS011;46976;52.942;6.810;2022-08-03T03:32:28;12.80;;;5.07;;
61093;SDS011;46976;52.942;6.810;2022-08-03T03:34:54;13.50;;;5.45;;
61093;SDS011;46976;52.942;6.810;2022-08-03T03:39:49;11.20;;;4.65;;
61093;SDS011;46976;52.942;6.810;2022-08-03T03:42:15;12.55;;;5.07;;
61093;SDS011;46976;52.942;6.810;2022-08-03T03:44:41;11.85;;;4.90;;
61093;SDS011;46976;52.942;6.810;2022-08-03T03:47:07;10.60;;;4.80;;
61093;SDS011;46976;52.942;6.810;2022-08-03T03:49:33;10.98;;;5.30;;
61093;SDS011;46976;52.942;6.810;2022-08-03T03:51:59;11.52;;;5.35;;
61093;SDS011;46976;52.942;6.810;2022-08-03T03:54:25;11.70;;;5.38;;
61093;SDS011;46976;52.942;6.810;2022-08-03T03:56:52;10.43;;;5.32;;
61093;SDS011;46976;52.942;6.810;2022-08-03T03:59:18;11.25;;;4.65;;
61093;SDS011;46976;52.942;6.810;2022-08-03T04:01:44;9.80;;;4.85;;
61093;SDS011;46976;52.942;6.810;2022-08-03T04:04:11;10.50;;;4.95;;
61093;SDS011;46976;52.942;6.810;2022-08-03T04:06:55;13.95;;;5.30;;
61093;SDS011;46976;52.942;6.810;2022-08-03T04:09:41;10.93;;;5.07;;
61093;SDS011;46976;52.942;6.810;2022-08-03T04:12:27;10.05;;;4.60;;
61093;SDS011;46976;52.942;6.810;2022-08-03T04:14:55;10.85;;;5.05;;
61093;SDS011;46976;52.942;6.810;2022-08-03T04:17:22;13.07;;;5.38;;
61093;SDS011;46976;52.942;6.810;2022-08-03T04:19:51;11.15;;;5.30;;
61093;SDS011;46976;52.942;6.810;2022-08-03T04:22:18;10.50;;;4.75;;
61093;SDS011;46976;52.942;6.810;2022-08-03T04:24:47;11.13;;;4.65;;
61093;SDS011;46976;52.942;6.810;2022-08-03T04:27:15;11.63;;;4.95;;
61093;SDS011;46976;52.942;6.810;2022-08-03T04:29:44;11.65;;;4.50;;
61093;SDS011;46976;52.942;6.810;2022-08-03T04:32:11;11.13;;;5.10;;
61093;SDS011;46976;52.942;6.810;2022-08-03T04:34:37;14.73;;;5.03;;
61093;SDS011;46976;52.942;6.810;2022-08-03T04:37:08;12.80;;;3.92;;
61093;SDS011;46976;52.942;6.810;2022-08-03T04:39:35;9.20;;;4.05;;
61093;SDS011;46976;52.942;6.810;2022-08-03T04:42:02;9.57;;;3.90;;
61093;SDS011;46976;52.942;6.810;2022-08-03T04:44:29;9.68;;;4.07;;
61093;SDS011;46976;52.942;6.810;2022-08-03T04:46:56;14.48;;;4.43;;
61093;SDS011;46976;52.942;6.810;2022-08-03T04:49:22;11.13;;;4.57;;
61093;SDS011;46976;52.942;6.810;2022-08-03T04:51:48;12.30;;;4.38;;
61093;SDS011;46976;52.942;6.810;2022-08-03T04:54:15;9.45;;;3.75;;
61093;SDS011;46976;52.942;6.810;2022-08-03T04:56:44;12.10;;;4.10;;
61093;SDS011;46976;52.942;6.810;2022-08-03T04:59:10;9.05;;;3.92;;
61093;SDS011;46976;52.942;6.810;2022-08-03T05:01:36;12.07;;;4.30;;
61093;SDS011;46976;52.942;6.810;2022-08-03T05:04:03;9.60;;;4.18;;
61093;SDS011;46976;52.942;6.810;2022-08-03T05:06:30;10.75;;;4.07;;
61093;SDS011;46976;52.942;6.810;2022-08-03T05:08:56;10.95;;;4.00;;
61093;SDS011;46976;52.942;6.810;2022-08-03T05:11:22;11.32;;;4.03;;
61093;SDS011;46976;52.942;6.810;2022-08-03T05:13:48;13.13;;;4.40;;
61093;SDS011;46976;52.942;6.810;2022-08-03T05:16:14;12.85;;;4.47;;
61093;SDS011;46976;52.942;6.810;2022-08-03T05:18:40;11.93;;;4.10;;
61093;SDS011;46976;52.942;6.810;2022-08-03T05:21:07;10.93;;;4.32;;
61093;SDS011;46976;52.942;6.810;2022-08-03T05:23:34;11.65;;;4.22;;
61093;SDS011;46976;52.942;6.810;2022-08-03T05:26:00;13.20;;;4.63;;
61093;SDS011;46976;52.942;6.810;2022-08-03T05:28:26;11.77;;;4.63;;
61093;SDS011;46976;52.942;6.810;2022-08-03T05:30:52;12.50;;;4.32;;
61093;SDS011;46976;52.942;6.810;2022-08-03T05:33:18;11.75;;;4.40;;
61093;SDS011;46976;52.942;6.810;2022-08-03T05:35:44;12.95;;;4.30;;
61093;SDS011;46976;52.942;6.810;2022-08-03T05:38:10;11.85;;;4.70;;
61093;SDS011;46976;52.942;6.810;2022-08-03T05:40:36;10.48;;;4.22;;
61093;SDS011;46976;52.942;6.810;2022-08-03T05:43:03;12.95;;;4.60;;
61093;SDS011;46976;52.942;6.810;2022-08-03T05:45:29;12.52;;;4.45;;
61093;SDS011;46976;52.942;6.810;2022-08-03T05:47:55;11.10;;;4.22;;
61093;SDS011;46976;52.942;6.810;2022-08-03T05:50:21;11.23;;;4.03;;
61093;SDS011;46976;52.942;6.810;2022-08-03T05:52:47;11.32;;;5.03;;
61093;SDS011;46976;52.942;6.810;2022-08-03T05:55:13;9.65;;;4.63;;
61093;SDS011;46976;52.942;6.810;2022-08-03T05:57:40;11.40;;;4.32;;
61093;SDS011;46976;52.942;6.810;2022-08-03T06:00:09;11.23;;;4.93;;
61093;SDS011;46976;52.942;6.810;2022-08-03T06:02:36;11.55;;;4.65;;
61093;SDS011;46976;52.942;6.810;2022-08-03T06:05:03;13.75;;;4.70;;
61093;SDS011;46976;52.942;6.810;2022-08-03T06:07:30;11.43;;;4.30;;
61093;SDS011;46976;52.942;6.810;2022-08-03T06:09:56;10.82;;;4.53;;
61093;SDS011;46976;52.942;6.810;2022-08-03T06:12:22;14.13;;;4.47;;
61093;SDS011;46976;52.942;6.810;2022-08-03T06:14:48;11.65;;;4.47;;
61093;SDS011;46976;52.942;6.810;2022-08-03T06:17:14;12.93;;;4.82;;
61093;SDS011;46976;52.942;6.810;2022-08-03T06:19:40;13.35;;;4.78;;
61093;SDS011;46976;52.942;6.810;2022-08-03T06:22:07;16.90;;;4.88;;
61093;SDS011;46976;52.942;6.810;2022-08-03T06:24:33;11.80;;;4.40;;
61093;SDS011;46976;52.942;6.810;2022-08-03T06:26:59;11.27;;;4.18;;
61093;SDS011;46976;52.942;6.810;2022-08-03T06:29:25;11.93;;;4.45;;
61093;SDS011;46976;52.942;6.810;2022-08-03T06:31:51;14.50;;;4.40;;
61093;SDS011;46976;52.942;6.810;2022-08-03T06:34:17;12.80;;;4.47;;
61093;SDS011;46976;52.942;6.810;2022-08-03T06:36:43;12.30;;;4.28;;
61093;SDS011;46976;52.942;6.810;2022-08-03T06:39:12;15.45;;;4.25;;
61093;SDS011;46976;52.942;6.810;2022-08-03T06:41:38;12.43;;;3.80;;
61093;SDS011;46976;52.942;6.810;2022-08-03T06:44:04;11.07;;;4.05;;
61093;SDS011;46976;52.942;6.810;2022-08-03T06:46:30;14.13;;;4.28;;
61093;SDS011;46976;52.942;6.810;2022-08-03T06:48:56;15.45;;;4.22;;
61093;SDS011;46976;52.942;6.810;2022-08-03T06:51:22;12.85;;;4.30;;
61093;SDS011;46976;52.942;6.810;2022-08-03T06:53:48;14.88;;;4.30;;
61093;SDS011;46976;52.942;6.810;2022-08-03T06:56:14;13.80;;;3.70;;
61093;SDS011;46976;52.942;6.810;2022-08-03T06:58:40;12.35;;;4.20;;
61093;SDS011;46976;52.942;6.810;2022-08-03T07:01:06;14.38;;;3.83;;
61093;SDS011;46976;52.942;6.810;2022-08-03T07:03:32;10.95;;;3.80;;
61093;SDS011;46976;52.942;6.810;2022-08-03T07:05:59;14.18;;;3.53;;
61093;SDS011;46976;52.942;6.810;2022-08-03T07:08:25;13.18;;;3.70;;
61093;SDS011;46976;52.942;6.810;2022-08-03T07:10:51;11.52;;;3.75;;
61093;SDS011;46976;52.942;6.810;2022-08-03T07:13:18;13.43;;;3.72;;
61093;SDS011;46976;52.942;6.810;2022-08-03T07:15:44;11.93;;;3.35;;
61093;SDS011;46976;52.942;6.810;2022-08-03T07:18:10;11.68;;;3.38;;
61093;SDS011;46976;52.942;6.810;2022-08-03T07:20:36;14.50;;;3.65;;
61093;SDS011;46976;52.942;6.810;2022-08-03T07:23:02;10.98;;;3.70;;
61093;SDS011;46976;52.942;6.810;2022-08-03T07:25:28;10.90;;;3.60;;
61093;SDS011;46976;52.942;6.810;2022-08-03T07:27:54;11.15;;;3.42;;
61093;SDS011;46976;52.942;6.810;2022-08-03T07:30:21;14.68;;;3.50;;
61093;SDS011;46976;52.942;6.810;2022-08-03T07:32:47;12.85;;;3.22;;
61093;SDS011;46976;52.942;6.810;2022-08-03T07:35:13;13.85;;;4.25;;
61093;SDS011;46976;52.942;6.810;2022-08-03T07:37:39;13.57;;;3.70;;
61093;SDS011;46976;52.942;6.810;2022-08-03T07:40:05;11.35;;;3.50;;
61093;SDS011;46976;52.942;6.810;2022-08-03T07:42:31;12.52;;;4.18;;
61093;SDS011;46976;52.942;6.810;2022-08-03T07:44:57;13.05;;;3.58;;
61093;SDS011;46976;52.942;6.810;2022-08-03T07:47:24;14.80;;;3.63;;
61093;SDS011;46976;52.942;6.810;2022-08-03T07:49:50;13.82;;;3.10;;
61093;SDS011;46976;52.942;6.810;2022-08-03T07:52:17;10.95;;;3.15;;
61093;SDS011;46976;52.942;6.810;2022-08-03T07:55:02;11.77;;;3.28;;
61093;SDS011;46976;52.942;6.810;2022-08-03T07:57:28;12.55;;;3.75;;
61093;SDS011;46976;52.942;6.810;2022-08-03T07:59:54;8.93;;;2.80;;
61093;SDS011;46976;52.942;6.810;2022-08-03T08:02:20;10.75;;;3.00;;
61093;SDS011;46976;52.942;6.810;2022-08-03T08:04:46;10.98;;;2.65;;
61093;SDS011;46976;52.942;6.810;2022-08-03T08:07:12;12.60;;;3.60;;
61093;SDS011;46976;52.942;6.810;2022-08-03T08:09:38;9.30;;;2.83;;
61093;SDS011;46976;52.942;6.810;2022-08-03T08:12:04;11.57;;;3.60;;
61093;SDS011;46976;52.942;6.810;2022-08-03T08:14:32;12.17;;;3.13;;
61093;SDS011;46976;52.942;6.810;2022-08-03T08:16:58;12.93;;;3.30;;
61093;SDS011;46976;52.942;6.810;2022-08-03T08:19:24;14.88;;;3.45;;
61093;SDS011;46976;52.942;6.810;2022-08-03T08:21:50;14.02;;;3.47;;
61093;SDS011;46976;52.942;6.810;2022-08-03T08:24:16;11.57;;;2.90;;
61093;SDS011;46976;52.942;6.810;2022-08-03T08:26:42;12.80;;;2.80;;
61093;SDS011;46976;52.942;6.810;2022-08-03T08:29:08;14.07;;;3.20;;
61093;SDS011;46976;52.942;6.810;2022-08-03T08:31:34;13.38;;;3.22;;
61093;SDS011;46976;52.942;6.810;2022-08-03T08:34:00;12.23;;;2.85;;
61093;SDS011;46976;52.942;6.810;2022-08-03T08:36:34;14.43;;;2.83;;
61093;SDS011;46976;52.942;6.810;2022-08-03T08:39:00;12.98;;;3.20;;
61093;SDS011;46976;52.942;6.810;2022-08-03T08:41:26;13.25;;;3.10;;
61093;SDS011;46976;52.942;6.810;2022-08-03T08:43:53;15.35;;;3.60;;
61093;SDS011;46976;52.942;6.810;2022-08-03T08:46:19;12.32;;;3.22;;
61093;SDS011;46976;52.942;6.810;2022-08-03T08:48:45;12.25;;;3.63;;
61093;SDS011;46976;52.942;6.810;2022-08-03T08:51:13;14.00;;;3.37;;
61093;SDS011;46976;52.942;6.810;2022-08-03T08:53:43;14.32;;;3.25;;
61093;SDS011;46976;52.942;6.810;2022-08-03T08:56:11;12.55;;;3.00;;
61093;SDS011;46976;52.942;6.810;2022-08-03T08:58:48;12.43;;;3.10;;
61093;SDS011;46976;52.942;6.810;2022-08-03T09:01:19;12.25;;;3.10;;
61093;SDS011;46976;52.942;6.810;2022-08-03T09:03:46;13.75;;;2.95;;
61093;SDS011;46976;52.942;6.810;2022-08-03T09:06:12;11.73;;;2.92;;
61093;SDS011;46976;52.942;6.810;2022-08-03T09:08:39;12.95;;;3.50;;
61093;SDS011;46976;52.942;6.810;2022-08-03T09:11:05;13.75;;;3.63;;
61093;SDS011;46976;52.942;6.810;2022-08-03T09:13:34;12.93;;;3.88;;
61093;SDS011;46976;52.942;6.810;2022-08-03T09:16:11;13.15;;;3.55;;
61093;SDS011;46976;52.942;6.810;2022-08-03T09:18:37;10.98;;;2.97;;
61093;SDS011;46976;52.942;6.810;2022-08-03T09:26:07;10.10;;;2.90;;
61093;SDS011;46976;52.942;6.810;2022-08-03T09:28:34;12.75;;;3.30;;
61093;SDS011;46976;52.942;6.810;2022-08-03T09:31:00;10.88;;;2.97;;
61093;SDS011;46976;52.942;6.810;2022-08-03T09:33:27;12.20;;;3.10;;
61093;SDS011;46976;52.942;6.810;2022-08-03T09:35:53;11.63;;;3.30;;
61093;SDS011;46976;52.942;6.810;2022-08-03T09:38:21;11.55;;;2.97;;
61093;SDS011;46976;52.942;6.810;2022-08-03T09:40:50;11.88;;;3.00;;
61093;SDS011;46976;52.942;6.810;2022-08-03T09:43:16;11.10;;;2.95;;
61093;SDS011;46976;52.942;6.810;2022-08-03T09:45:43;9.98;;;3.10;;
61093;SDS011;46976;52.942;6.810;2022-08-03T09:48:28;12.48;;;2.50;;
61093;SDS011;46976;52.942;6.810;2022-08-03T09:50:55;10.00;;;2.50;;
61093;SDS011;46976;52.942;6.810;2022-08-03T09:53:22;13.77;;;3.15;;
61093;SDS011;46976;52.942;6.810;2022-08-03T09:55:52;9.73;;;2.25;;
61093;SDS011;46976;52.942;6.810;2022-08-03T09:58:19;11.38;;;2.60;;
61093;SDS011;46976;52.942;6.810;2022-08-03T10:00:59;12.75;;;2.90;;
61093;SDS011;46976;52.942;6.810;2022-08-03T10:03:26;10.05;;;2.70;;
61093;SDS011;46976;52.942;6.810;2022-08-03T10:05:53;10.10;;;2.63;;
61093;SDS011;46976;52.942;6.810;2022-08-03T10:08:20;10.50;;;2.25;;
61093;SDS011;46976;52.942;6.810;2022-08-03T10:10:47;9.02;;;2.45;;
61093;SDS011;46976;52.942;6.810;2022-08-03T10:13:14;11.10;;;2.85;;
61093;SDS011;46976;52.942;6.810;2022-08-03T10:15:40;11.82;;;3.15;;
61093;SDS011;46976;52.942;6.810;2022-08-03T10:18:06;12.70;;;2.67;;
61093;SDS011;46976;52.942;6.810;2022-08-03T10:21:07;10.73;;;3.03;;
61093;SDS011;46976;52.942;6.810;2022-08-03T10:23:26;9.60;;;2.60;;
61093;SDS011;46976;52.942;6.810;2022-08-03T10:25:53;12.35;;;2.70;;
61093;SDS011;46976;52.942;6.810;2022-08-03T10:28:23;9.77;;;2.67;;
61093;SDS011;46976;52.942;6.810;2022-08-03T10:30:50;11.75;;;2.90;;
61093;SDS011;46976;52.942;6.810;2022-08-03T10:33:18;12.05;;;3.22;;
61093;SDS011;46976;52.942;6.810;2022-08-03T10:40:38;12.50;;;2.50;;
61093;SDS011;46976;52.942;6.810;2022-08-03T10:43:06;12.63;;;2.60;;
61093;SDS011;46976;52.942;6.810;2022-08-03T10:45:33;12.63;;;3.00;;
61093;SDS011;46976;52.942;6.810;2022-08-03T10:48:01;11.27;;;2.67;;
61093;SDS011;46976;52.942;6.810;2022-08-03T10:50:27;16.10;;;2.95;;
61093;SDS011;46976;52.942;6.810;2022-08-03T10:55:28;11.13;;;2.70;;
61093;SDS011;46976;52.942;6.810;2022-08-03T10:58:13;11.38;;;2.75;;
61093;SDS011;46976;52.942;6.810;2022-08-03T11:00:47;9.93;;;2.53;;
61093;SDS011;46976;52.942;6.810;2022-08-03T11:03:15;16.30;;;2.70;;
61093;SDS011;46976;52.942;6.810;2022-08-03T11:05:46;10.60;;;2.80;;
61093;SDS011;46976;52.942;6.810;2022-08-03T11:08:16;11.75;;;2.72;;
61093;SDS011;46976;52.942;6.810;2022-08-03T11:10:42;15.52;;;3.35;;
61093;SDS011;46976;52.942;6.810;2022-08-03T11:13:08;13.13;;;3.10;;
61093;SDS011;46976;52.942;6.810;2022-08-03T11:15:35;12.25;;;2.78;;
61093;SDS011;46976;52.942;6.810;2022-08-03T11:18:08;12.27;;;3.33;;
61093;SDS011;46976;52.942;6.810;2022-08-03T11:23:18;12.48;;;2.83;;
61093;SDS011;46976;52.942;6.810;2022-08-03T11:28:29;14.07;;;2.92;;
61093;SDS011;46976;52.942;6.810;2022-08-03T11:31:11;14.43;;;2.95;;
61093;SDS011;46976;52.942;6.810;2022-08-03T11:33:44;13.52;;;2.75;;
61093;SDS011;46976;52.942;6.810;2022-08-03T11:36:27;14.10;;;3.10;;
61093;SDS011;46976;52.942;6.810;2022-08-03T11:39:12;11.35;;;2.60;;
61093;SDS011;46976;52.942;6.810;2022-08-03T11:41:38;12.18;;;2.42;;
61093;SDS011;46976;52.942;6.810;2022-08-03T11:44:04;15.65;;;2.53;;
61093;SDS011;46976;52.942;6.810;2022-08-03T11:46:35;14.60;;;2.70;;
61093;SDS011;46976;52.942;6.810;2022-08-03T11:49:05;11.23;;;2.60;;
61093;SDS011;46976;52.942;6.810;2022-08-03T11:51:31;14.18;;;3.05;;
61093;SDS011;46976;52.942;6.810;2022-08-03T11:54:02;13.98;;;2.97;;
61093;SDS011;46976;52.942;6.810;2022-08-03T11:56:42;12.60;;;2.88;;
61093;SDS011;46976;52.942;6.810;2022-08-03T11:59:09;11.90;;;2.80;;
61093;SDS011;46976;52.942;6.810;2022-08-03T12:01:35;13.82;;;3.10;;
61093;SDS011;46976;52.942;6.810;2022-08-03T12:04:03;12.15;;;3.00;;
61093;SDS011;46976;52.942;6.810;2022-08-03T12:06:29;10.73;;;2.38;;
61093;SDS011;46976;52.942;6.810;2022-08-03T12:09:16;14.77;;;2.90;;
61093;SDS011;46976;52.942;6.810;2022-08-03T12:11:42;11.05;;;2.55;;
61093;SDS011;46976;52.942;6.810;2022-08-03T12:14:08;13.43;;;2.78;;
61093;SDS011;46976;52.942;6.810;2022-08-03T12:16:41;13.05;;;2.75;;
61093;SDS011;46976;52.942;6.810;2022-08-03T12:19:11;10.35;;;2.15;;
61093;SDS011;46976;52.942;6.810;2022-08-03T12:21:47;12.43;;;2.50;;
61093;SDS011;46976;52.942;6.810;2022-08-03T12:24:14;10.60;;;2.13;;
61093;SDS011;46976;52.942;6.810;2022-08-03T12:26:44;12.33;;;3.00;;
61093;SDS011;46976;52.942;6.810;2022-08-03T12:29:17;14.02;;;2.83;;
61093;SDS011;46976;52.942;6.810;2022-08-03T12:31:44;11.75;;;2.50;;
61093;SDS011;46976;52.942;6.810;2022-08-03T12:34:10;10.47;;;2.43;;
61093;SDS011;46976;52.942;6.810;2022-08-03T12:36:37;10.13;;;2.75;;
61093;SDS011;46976;52.942;6.810;2022-08-03T12:39:14;12.98;;;2.72;;
61093;SDS011;46976;52.942;6.810;2022-08-03T12:41:40;10.30;;;2.30;;
61093;SDS011;46976;52.942;6.810;2022-08-03T12:44:07;10.93;;;2.45;;
61093;SDS011;46976;52.942;6.810;2022-08-03T12:46:35;13.38;;;2.47;;
61093;SDS011;46976;52.942;6.810;2022-08-03T12:51:36;11.00;;;2.22;;
61093;SDS011;46976;52.942;6.810;2022-08-03T12:54:02;11.63;;;2.30;;
61093;SDS011;46976;52.942;6.810;2022-08-03T12:56:29;13.27;;;2.72;;
61093;SDS011;46976;52.942;6.810;2022-08-03T12:58:55;10.75;;;3.05;;
61093;SDS011;46976;52.942;6.810;2022-08-03T13:01:21;10.00;;;2.28;;
61093;SDS011;46976;52.942;6.810;2022-08-03T13:03:50;11.43;;;2.42;;
61093;SDS011;46976;52.942;6.810;2022-08-03T13:06:21;11.90;;;2.50;;
61093;SDS011;46976;52.942;6.810;2022-08-03T13:08:48;14.48;;;2.67;;
61093;SDS011;46976;52.942;6.810;2022-08-03T13:11:19;14.07;;;2.35;;
61093;SDS011;46976;52.942;6.810;2022-08-03T13:13:45;10.98;;;2.70;;
61093;SDS011;46976;52.942;6.810;2022-08-03T13:16:11;13.40;;;2.40;;
61093;SDS011;46976;52.942;6.810;2022-08-03T13:18:37;10.50;;;2.50;;
61093;SDS011;46976;52.942;6.810;2022-08-03T13:21:03;12.88;;;2.42;;
61093;SDS011;46976;52.942;6.810;2022-08-03T13:23:29;11.10;;;2.40;;
61093;SDS011;46976;52.942;6.810;2022-08-03T13:25:55;12.88;;;2.42;;
61093;SDS011;46976;52.942;6.810;2022-08-03T13:28:22;10.05;;;2.50;;
61093;SDS011;46976;52.942;6.810;2022-08-03T13:30:48;12.15;;;2.20;;
61093;SDS011;46976;52.942;6.810;2022-08-03T13:33:14;11.27;;;2.47;;
61093;SDS011;46976;52.942;6.810;2022-08-03T13:35:40;12.70;;;2.80;;
61093;SDS011;46976;52.942;6.810;2022-08-03T13:38:06;10.98;;;2.45;;
61093;SDS011;46976;52.942;6.810;2022-08-03T13:40:32;13.50;;;2.90;;
61093;SDS011;46976;52.942;6.810;2022-08-03T13:42:58;11.20;;;2.27;;
61093;SDS011;46976;52.942;6.810;2022-08-03T13:45:24;13.63;;;2.70;;
61093;SDS011;46976;52.942;6.810;2022-08-03T13:47:51;10.68;;;2.20;;
61093;SDS011;46976;52.942;6.810;2022-08-03T13:50:17;12.77;;;2.43;;
61093;SDS011;46976;52.942;6.810;2022-08-03T13:52:43;11.35;;;2.55;;
61093;SDS011;46976;52.942;6.810;2022-08-03T13:55:10;11.70;;;2.50;;
61093;SDS011;46976;52.942;6.810;2022-08-03T13:57:37;13.18;;;2.38;;
61093;SDS011;46976;52.942;6.810;2022-08-03T14:00:04;11.57;;;2.17;;
61093;SDS011;46976;52.942;6.810;2022-08-03T14:02:30;13.00;;;2.38;;
61093;SDS011;46976;52.942;6.810;2022-08-03T14:04:56;9.70;;;2.20;;
61093;SDS011;46976;52.942;6.810;2022-08-03T14:07:22;11.70;;;2.60;;
61093;SDS011;46976;52.942;6.810;2022-08-03T14:09:48;10.45;;;2.03;;
61093;SDS011;46976;52.942;6.810;2022-08-03T14:12:14;9.35;;;2.33;;
61093;SDS011;46976;52.942;6.810;2022-08-03T14:14:40;11.13;;;2.67;;
61093;SDS011;46976;52.942;6.810;2022-08-03T14:17:06;14.73;;;2.70;;
61093;SDS011;46976;52.942;6.810;2022-08-03T14:19:32;11.32;;;2.30;;
61093;SDS011;46976;52.942;6.810;2022-08-03T14:21:59;12.50;;;2.50;;
61093;SDS011;46976;52.942;6.810;2022-08-03T14:24:25;12.40;;;2.60;;
61093;SDS011;46976;52.942;6.810;2022-08-03T14:26:51;13.32;;;2.75;;
61093;SDS011;46976;52.942;6.810;2022-08-03T14:29:17;10.82;;;2.55;;
61093;SDS011;46976;52.942;6.810;2022-08-03T14:31:43;10.75;;;2.30;;
61093;SDS011;46976;52.942;6.810;2022-08-03T14:34:09;9.30;;;2.63;;
61093;SDS011;46976;52.942;6.810;2022-08-03T14:36:35;13.60;;;2.35;;
61093;SDS011;46976;52.942;6.810;2022-08-03T14:39:01;10.68;;;2.30;;
61093;SDS011;46976;52.942;6.810;2022-08-03T14:41:27;11.68;;;2.55;;
61093;SDS011;46976;52.942;6.810;2022-08-03T14:43:53;9.98;;;2.65;;
61093;SDS011;46976;52.942;6.810;2022-08-03T14:46:20;12.50;;;2.45;;
61093;SDS011;46976;52.942;6.810;2022-08-03T14:48:46;9.82;;;2.30;;
61093;SDS011;46976;52.942;6.810;2022-08-03T14:51:13;12.40;;;2.58;;
61093;SDS011;46976;52.942;6.810;2022-08-03T14:53:39;11.60;;;2.60;;
61093;SDS011;46976;52.942;6.810;2022-08-03T14:56:05;14.37;;;2.47;;
61093;SDS011;46976;52.942;6.810;2022-08-03T14:58:31;9.35;;;2.75;;
61093;SDS011;46976;52.942;6.810;2022-08-03T15:00:57;11.50;;;2.33;;
61093;SDS011;46976;52.942;6.810;2022-08-03T15:03:24;10.68;;;2.33;;
61093;SDS011;46976;52.942;6.810;2022-08-03T15:05:54;9.75;;;2.00;;
61093;SDS011;46976;52.942;6.810;2022-08-03T15:08:20;11.07;;;2.50;;
61093;SDS011;46976;52.942;6.810;2022-08-03T15:10:47;9.35;;;1.90;;
61093;SDS011;46976;52.942;6.810;2022-08-03T15:13:13;12.13;;;2.07;;
61093;SDS011;46976;52.942;6.810;2022-08-03T15:15:39;9.15;;;2.13;;
61093;SDS011;46976;52.942;6.810;2022-08-03T15:18:05;11.00;;;2.25;;